sensor_id;sensor_type;location;lat;lon;timestamp;P1;durP1;ratioP1;P2;durP2;ratioP2
24685;SDS011;12804;51.176;4.452;2022-12-05T00:01:41;41.35;;;21.55;;
24685;SDS011;12804;51.176;4.452;2022-12-05T00:04:09;43.08;;;21.67;;
24685;SDS011;12804;51.176;4.452;2022-12-05T00:06:37;45.03;;;22.13;;
24685;SDS011;12804;51.176;4.452;2022-12-05T00:09:04;40.50;;;20.38;;
24685;SDS011;12804;51.176;4.452;2022-12-05T00:11:37;38.25;;;21.13;;
24685;SDS011;12804;51.176;4.452;2022-12-05T00:14:05;41.42;;;20.67;;
24685;SDS011;12804;51.176;4.452;2022-12-05T00:16:33;42.17;;;21.83;;
24685;SDS011;12804;51.176;4.452;2022-12-05T00:19:02;38.60;;;20.45;;
24685;SDS011;12804;51.176;4.452;2022-12-05T00:21:29;41.08;;;20.58;;
24685;SDS011;12804;51.176;4.452;2022-12-05T00:23:57;38.58;;;21.45;;
24685;SDS011;12804;51.176;4.452;2022-12-05T00:26:24;37.55;;;21.02;;
24685;SDS011;12804;51.176;4.452;2022-12-05T00:28:50;37.15;;;20.45;;
24685;SDS011;12804;51.176;4.452;2022-12-05T00:31:17;39.47;;;21.02;;
24685;SDS011;12804;51.176;4.452;2022-12-05T00:33:47;40.55;;;21.52;;
24685;SDS011;12804;51.176;4.452;2022-12-05T00:36:15;38.63;;;20.17;;
24685;SDS011;12804;51.176;4.452;2022-12-05T00:38:45;36.13;;;20.35;;
24685;SDS011;12804;51.176;4.452;2022-12-05T00:41:13;38.97;;;20.42;;
24685;SDS011;12804;51.176;4.452;2022-12-05T00:43:42;38.90;;;20.73;;
24685;SDS011;12804;51.176;4.452;2022-12-05T00:46:10;39.53;;;19.90;;
24685;SDS011;12804;51.176;4.452;2022-12-05T00:48:38;35.90;;;19.48;;
24685;SDS011;12804;51.176;4.452;2022-12-05T00:51:09;36.15;;;20.33;;
24685;SDS011;12804;51.176;4.452;2022-12-05T00:53:40;36.58;;;19.75;;
24685;SDS011;12804;51.176;4.452;2022-12-05T00:56:08;38.50;;;21.55;;
24685;SDS011;12804;51.176;4.452;2022-12-05T00:58:35;37.20;;;20.05;;
24685;SDS011;12804;51.176;4.452;2022-12-05T01:01:09;38.35;;;20.45;;
24685;SDS011;12804;51.176;4.452;2022-12-05T01:03:36;41.10;;;21.52;;
24685;SDS011;12804;51.176;4.452;2022-12-05T01:06:02;39.22;;;20.45;;
24685;SDS011;12804;51.176;4.452;2022-12-05T01:08:30;40.67;;;21.23;;
24685;SDS011;12804;51.176;4.452;2022-12-05T01:10:56;39.63;;;21.27;;
24685;SDS011;12804;51.176;4.452;2022-12-05T01:13:23;41.28;;;21.20;;
24685;SDS011;12804;51.176;4.452;2022-12-05T01:15:50;44.13;;;21.33;;
24685;SDS011;12804;51.176;4.452;2022-12-05T01:18:16;41.92;;;21.63;;
24685;SDS011;12804;51.176;4.452;2022-12-05T01:20:43;44.15;;;22.35;;
24685;SDS011;12804;51.176;4.452;2022-12-05T01:23:09;47.38;;;22.65;;
24685;SDS011;12804;51.176;4.452;2022-12-05T01:25:39;43.97;;;22.08;;
24685;SDS011;12804;51.176;4.452;2022-12-05T01:28:06;42.95;;;20.98;;
24685;SDS011;12804;51.176;4.452;2022-12-05T01:30:36;44.00;;;22.35;;
24685;SDS011;12804;51.176;4.452;2022-12-05T01:33:04;42.50;;;22.27;;
24685;SDS011;12804;51.176;4.452;2022-12-05T01:35:30;44.10;;;22.15;;
24685;SDS011;12804;51.176;4.452;2022-12-05T01:37:57;43.00;;;22.27;;
24685;SDS011;12804;51.176;4.452;2022-12-05T01:40:23;42.83;;;22.35;;
24685;SDS011;12804;51.176;4.452;2022-12-05T01:42:50;40.75;;;21.92;;
24685;SDS011;12804;51.176;4.452;2022-12-05T01:45:17;42.05;;;21.10;;
24685;SDS011;12804;51.176;4.452;2022-12-05T01:47:54;45.75;;;23.48;;
24685;SDS011;12804;51.176;4.452;2022-12-05T01:50:20;40.78;;;21.55;;
24685;SDS011;12804;51.176;4.452;2022-12-05T01:52:47;39.20;;;21.38;;
24685;SDS011;12804;51.176;4.452;2022-12-05T01:55:13;42.97;;;23.35;;
24685;SDS011;12804;51.176;4.452;2022-12-05T01:57:41;40.78;;;22.38;;
24685;SDS011;12804;51.176;4.452;2022-12-05T02:00:14;41.95;;;22.92;;
24685;SDS011;12804;51.176;4.452;2022-12-05T02:02:43;44.30;;;23.17;;
24685;SDS011;12804;51.176;4.452;2022-12-05T02:05:16;44.42;;;23.02;;
24685;SDS011;12804;51.176;4.452;2022-12-05T02:07:53;46.25;;;23.05;;
24685;SDS011;12804;51.176;4.452;2022-12-05T02:10:20;50.10;;;22.95;;
24685;SDS011;12804;51.176;4.452;2022-12-05T02:12:46;50.22;;;24.77;;
24685;SDS011;12804;51.176;4.452;2022-12-05T02:15:21;47.47;;;23.30;;
24685;SDS011;12804;51.176;4.452;2022-12-05T02:27:00;46.35;;;24.38;;
24685;SDS011;12804;51.176;4.452;2022-12-05T02:32:37;46.40;;;24.92;;
24685;SDS011;12804;51.176;4.452;2022-12-05T02:35:15;52.20;;;24.58;;
24685;SDS011;12804;51.176;4.452;2022-12-05T02:44:11;47.03;;;24.05;;
24685;SDS011;12804;51.176;4.452;2022-12-05T02:46:25;50.60;;;24.10;;
24685;SDS011;12804;51.176;4.452;2022-12-05T02:48:55;53.05;;;25.85;;
24685;SDS011;12804;51.176;4.452;2022-12-05T02:51:30;49.55;;;24.52;;
24685;SDS011;12804;51.176;4.452;2022-12-05T02:54:00;51.85;;;25.25;;
24685;SDS011;12804;51.176;4.452;2022-12-05T02:56:30;53.03;;;26.38;;
24685;SDS011;12804;51.176;4.452;2022-12-05T02:58:58;58.25;;;27.58;;
24685;SDS011;12804;51.176;4.452;2022-12-05T03:01:26;50.42;;;26.25;;
24685;SDS011;12804;51.176;4.452;2022-12-05T03:03:54;53.95;;;26.92;;
24685;SDS011;12804;51.176;4.452;2022-12-05T03:06:30;51.67;;;25.92;;
24685;SDS011;12804;51.176;4.452;2022-12-05T03:09:10;50.47;;;26.40;;
24685;SDS011;12804;51.176;4.452;2022-12-05T03:12:06;52.72;;;25.80;;
24685;SDS011;12804;51.176;4.452;2022-12-05T03:14:44;52.50;;;26.13;;
24685;SDS011;12804;51.176;4.452;2022-12-05T03:17:14;52.60;;;26.65;;
24685;SDS011;12804;51.176;4.452;2022-12-05T03:20:08;53.35;;;26.58;;
24685;SDS011;12804;51.176;4.452;2022-12-05T03:22:35;53.30;;;26.30;;
24685;SDS011;12804;51.176;4.452;2022-12-05T03:25:06;57.20;;;27.08;;
24685;SDS011;12804;51.176;4.452;2022-12-05T03:30:12;55.50;;;26.30;;
24685;SDS011;12804;51.176;4.452;2022-12-05T03:40:43;56.42;;;27.73;;
24685;SDS011;12804;51.176;4.452;2022-12-05T03:43:31;53.05;;;26.95;;
24685;SDS011;12804;51.176;4.452;2022-12-05T03:48:49;53.80;;;27.58;;
24685;SDS011;12804;51.176;4.452;2022-12-05T03:51:17;54.08;;;27.52;;
24685;SDS011;12804;51.176;4.452;2022-12-05T03:53:53;55.17;;;26.58;;
24685;SDS011;12804;51.176;4.452;2022-12-05T03:56:24;51.50;;;26.80;;
24685;SDS011;12804;51.176;4.452;2022-12-05T04:01:31;53.92;;;26.02;;
24685;SDS011;12804;51.176;4.452;2022-12-05T04:04:01;53.65;;;27.23;;
24685;SDS011;12804;51.176;4.452;2022-12-05T04:06:48;52.13;;;25.75;;
24685;SDS011;12804;51.176;4.452;2022-12-05T04:09:20;47.92;;;24.20;;
24685;SDS011;12804;51.176;4.452;2022-12-05T04:11:52;49.47;;;25.30;;
24685;SDS011;12804;51.176;4.452;2022-12-05T04:14:27;46.85;;;24.33;;
24685;SDS011;12804;51.176;4.452;2022-12-05T04:17:44;46.95;;;25.15;;
24685;SDS011;12804;51.176;4.452;2022-12-05T04:19:50;46.08;;;25.58;;
24685;SDS011;12804;51.176;4.452;2022-12-05T04:25:07;49.28;;;24.42;;
24685;SDS011;12804;51.176;4.452;2022-12-05T04:30:57;52.45;;;25.98;;
24685;SDS011;12804;51.176;4.452;2022-12-05T04:34:12;48.45;;;25.38;;
24685;SDS011;12804;51.176;4.452;2022-12-05T04:39:07;52.53;;;26.55;;
24685;SDS011;12804;51.176;4.452;2022-12-05T04:41:39;50.50;;;26.15;;
24685;SDS011;12804;51.176;4.452;2022-12-05T04:44:15;53.95;;;27.65;;
24685;SDS011;12804;51.176;4.452;2022-12-05T04:46:44;55.53;;;27.35;;
24685;SDS011;12804;51.176;4.452;2022-12-05T04:49:15;51.15;;;26.27;;
24685;SDS011;12804;51.176;4.452;2022-12-05T04:51:46;56.75;;;27.80;;
24685;SDS011;12804;51.176;4.452;2022-12-05T04:54:23;61.95;;;28.23;;
24685;SDS011;12804;51.176;4.452;2022-12-05T04:56:51;48.85;;;26.00;;
24685;SDS011;12804;51.176;4.452;2022-12-05T04:59:21;50.50;;;27.27;;
24685;SDS011;12804;51.176;4.452;2022-12-05T05:01:48;55.35;;;27.15;;
24685;SDS011;12804;51.176;4.452;2022-12-05T05:06:56;51.55;;;27.35;;
24685;SDS011;12804;51.176;4.452;2022-12-05T05:09:22;56.08;;;27.00;;
24685;SDS011;12804;51.176;4.452;2022-12-05T05:11:48;54.85;;;28.05;;
24685;SDS011;12804;51.176;4.452;2022-12-05T05:14:13;55.25;;;28.75;;
24685;SDS011;12804;51.176;4.452;2022-12-05T05:16:40;54.70;;;27.42;;
24685;SDS011;12804;51.176;4.452;2022-12-05T05:19:09;54.67;;;28.08;;
24685;SDS011;12804;51.176;4.452;2022-12-05T05:21:36;57.40;;;28.45;;
24685;SDS011;12804;51.176;4.452;2022-12-05T05:24:04;54.42;;;27.23;;
24685;SDS011;12804;51.176;4.452;2022-12-05T05:26:32;57.00;;;28.30;;
24685;SDS011;12804;51.176;4.452;2022-12-05T05:29:00;54.03;;;27.20;;
24685;SDS011;12804;51.176;4.452;2022-12-05T05:31:26;60.10;;;28.48;;
24685;SDS011;12804;51.176;4.452;2022-12-05T05:33:52;51.80;;;27.17;;
24685;SDS011;12804;51.176;4.452;2022-12-05T05:36:20;54.47;;;27.08;;
24685;SDS011;12804;51.176;4.452;2022-12-05T05:38:48;48.10;;;25.92;;
24685;SDS011;12804;51.176;4.452;2022-12-05T05:41:16;54.00;;;27.27;;
24685;SDS011;12804;51.176;4.452;2022-12-05T05:43:57;56.00;;;27.55;;
24685;SDS011;12804;51.176;4.452;2022-12-05T05:46:24;53.55;;;27.77;;
24685;SDS011;12804;51.176;4.452;2022-12-05T05:48:52;50.47;;;26.80;;
24685;SDS011;12804;51.176;4.452;2022-12-05T05:51:19;52.70;;;27.90;;
24685;SDS011;12804;51.176;4.452;2022-12-05T05:53:45;54.80;;;27.58;;
24685;SDS011;12804;51.176;4.452;2022-12-05T05:56:12;54.90;;;28.10;;
24685;SDS011;12804;51.176;4.452;2022-12-05T05:58:40;53.40;;;27.50;;
24685;SDS011;12804;51.176;4.452;2022-12-05T06:01:06;52.95;;;26.90;;
24685;SDS011;12804;51.176;4.452;2022-12-05T06:03:34;47.78;;;26.08;;
24685;SDS011;12804;51.176;4.452;2022-12-05T06:06:01;52.35;;;26.17;;
24685;SDS011;12804;51.176;4.452;2022-12-05T06:08:29;48.65;;;25.98;;
24685;SDS011;12804;51.176;4.452;2022-12-05T06:10:57;46.85;;;25.88;;
24685;SDS011;12804;51.176;4.452;2022-12-05T06:13:22;52.53;;;26.92;;
24685;SDS011;12804;51.176;4.452;2022-12-05T06:15:48;54.65;;;27.48;;
24685;SDS011;12804;51.176;4.452;2022-12-05T06:18:14;55.83;;;29.65;;
24685;SDS011;12804;51.176;4.452;2022-12-05T06:20:40;54.40;;;26.67;;
24685;SDS011;12804;51.176;4.452;2022-12-05T06:23:06;53.92;;;28.08;;
24685;SDS011;12804;51.176;4.452;2022-12-05T06:25:32;53.38;;;27.65;;
24685;SDS011;12804;51.176;4.452;2022-12-05T06:27:58;53.97;;;27.98;;
24685;SDS011;12804;51.176;4.452;2022-12-05T06:30:24;54.88;;;28.08;;
24685;SDS011;12804;51.176;4.452;2022-12-05T06:32:49;57.75;;;30.08;;
24685;SDS011;12804;51.176;4.452;2022-12-05T06:35:15;55.33;;;28.77;;
24685;SDS011;12804;51.176;4.452;2022-12-05T06:37:42;56.25;;;28.83;;
24685;SDS011;12804;51.176;4.452;2022-12-05T06:40:09;61.22;;;29.20;;
24685;SDS011;12804;51.176;4.452;2022-12-05T06:42:38;58.95;;;28.80;;
24685;SDS011;12804;51.176;4.452;2022-12-05T06:45:04;60.28;;;29.90;;
24685;SDS011;12804;51.176;4.452;2022-12-05T06:47:30;61.05;;;29.20;;
24685;SDS011;12804;51.176;4.452;2022-12-05T06:49:56;58.83;;;29.90;;
24685;SDS011;12804;51.176;4.452;2022-12-05T06:52:22;52.63;;;28.90;;
24685;SDS011;12804;51.176;4.452;2022-12-05T06:54:48;64.55;;;31.27;;
24685;SDS011;12804;51.176;4.452;2022-12-05T06:57:14;57.53;;;29.40;;
24685;SDS011;12804;51.176;4.452;2022-12-05T06:59:39;59.25;;;29.85;;
24685;SDS011;12804;51.176;4.452;2022-12-05T07:02:05;62.25;;;29.85;;
24685;SDS011;12804;51.176;4.452;2022-12-05T07:04:32;52.95;;;28.58;;
24685;SDS011;12804;51.176;4.452;2022-12-05T07:06:59;54.70;;;29.17;;
24685;SDS011;12804;51.176;4.452;2022-12-05T07:09:26;62.00;;;29.90;;
24685;SDS011;12804;51.176;4.452;2022-12-05T07:12:13;60.88;;;29.98;;
24685;SDS011;12804;51.176;4.452;2022-12-05T07:14:40;57.10;;;29.52;;
24685;SDS011;12804;51.176;4.452;2022-12-05T07:17:07;57.03;;;29.35;;
24685;SDS011;12804;51.176;4.452;2022-12-05T07:19:33;60.88;;;29.13;;
24685;SDS011;12804;51.176;4.452;2022-12-05T07:21:59;58.15;;;29.15;;
24685;SDS011;12804;51.176;4.452;2022-12-05T07:24:25;56.80;;;29.05;;
24685;SDS011;12804;51.176;4.452;2022-12-05T07:26:51;58.25;;;30.02;;
24685;SDS011;12804;51.176;4.452;2022-12-05T07:29:17;61.72;;;29.33;;
24685;SDS011;12804;51.176;4.452;2022-12-05T07:31:43;51.88;;;27.15;;
24685;SDS011;12804;51.176;4.452;2022-12-05T07:34:09;58.78;;;29.67;;
24685;SDS011;12804;51.176;4.452;2022-12-05T07:36:35;63.78;;;30.25;;
24685;SDS011;12804;51.176;4.452;2022-12-05T07:39:01;55.20;;;27.70;;
24685;SDS011;12804;51.176;4.452;2022-12-05T07:41:28;56.97;;;28.38;;
24685;SDS011;12804;51.176;4.452;2022-12-05T07:43:55;57.20;;;29.15;;
24685;SDS011;12804;51.176;4.452;2022-12-05T07:46:22;53.97;;;28.83;;
24685;SDS011;12804;51.176;4.452;2022-12-05T07:48:49;55.97;;;28.73;;
24685;SDS011;12804;51.176;4.452;2022-12-05T07:51:16;57.20;;;30.42;;
24685;SDS011;12804;51.176;4.452;2022-12-05T07:53:42;55.72;;;28.80;;
24685;SDS011;12804;51.176;4.452;2022-12-05T07:56:10;54.78;;;29.38;;
24685;SDS011;12804;51.176;4.452;2022-12-05T07:58:38;56.97;;;29.15;;
24685;SDS011;12804;51.176;4.452;2022-12-05T08:01:05;52.47;;;27.23;;
24685;SDS011;12804;51.176;4.452;2022-12-05T08:03:31;58.15;;;29.90;;
24685;SDS011;12804;51.176;4.452;2022-12-05T08:06:01;56.55;;;29.17;;
24685;SDS011;12804;51.176;4.452;2022-12-05T08:08:31;56.42;;;29.80;;
24685;SDS011;12804;51.176;4.452;2022-12-05T08:11:02;62.47;;;29.65;;
24685;SDS011;12804;51.176;4.452;2022-12-05T08:13:30;56.27;;;30.77;;
24685;SDS011;12804;51.176;4.452;2022-12-05T08:15:59;57.97;;;29.63;;
24685;SDS011;12804;51.176;4.452;2022-12-05T08:18:26;62.45;;;30.52;;
24685;SDS011;12804;51.176;4.452;2022-12-05T08:20:52;59.78;;;30.48;;
24685;SDS011;12804;51.176;4.452;2022-12-05T08:23:18;58.50;;;31.30;;
24685;SDS011;12804;51.176;4.452;2022-12-05T08:25:44;58.50;;;30.00;;
24685;SDS011;12804;51.176;4.452;2022-12-05T08:28:10;58.60;;;30.23;;
24685;SDS011;12804;51.176;4.452;2022-12-05T08:30:36;53.53;;;28.92;;
24685;SDS011;12804;51.176;4.452;2022-12-05T08:33:01;58.50;;;30.40;;
24685;SDS011;12804;51.176;4.452;2022-12-05T08:35:27;57.13;;;30.02;;
24685;SDS011;12804;51.176;4.452;2022-12-05T08:37:53;55.40;;;30.20;;
24685;SDS011;12804;51.176;4.452;2022-12-05T08:40:19;61.60;;;31.13;;
24685;SDS011;12804;51.176;4.452;2022-12-05T08:42:45;56.67;;;30.63;;
24685;SDS011;12804;51.176;4.452;2022-12-05T08:45:10;58.83;;;30.25;;
24685;SDS011;12804;51.176;4.452;2022-12-05T08:47:36;56.00;;;29.05;;
24685;SDS011;12804;51.176;4.452;2022-12-05T08:50:02;63.30;;;31.23;;
24685;SDS011;12804;51.176;4.452;2022-12-05T08:52:28;60.60;;;31.90;;
24685;SDS011;12804;51.176;4.452;2022-12-05T08:54:54;56.47;;;29.85;;
24685;SDS011;12804;51.176;4.452;2022-12-05T08:57:20;63.63;;;30.50;;
24685;SDS011;12804;51.176;4.452;2022-12-05T08:59:45;56.17;;;29.77;;
24685;SDS011;12804;51.176;4.452;2022-12-05T09:02:11;57.50;;;30.65;;
24685;SDS011;12804;51.176;4.452;2022-12-05T09:04:37;55.42;;;30.15;;
24685;SDS011;12804;51.176;4.452;2022-12-05T09:07:03;57.13;;;29.65;;
24685;SDS011;12804;51.176;4.452;2022-12-05T09:09:28;60.03;;;29.90;;
24685;SDS011;12804;51.176;4.452;2022-12-05T09:11:56;57.28;;;30.52;;
24685;SDS011;12804;51.176;4.452;2022-12-05T09:14:22;55.13;;;29.60;;
24685;SDS011;12804;51.176;4.452;2022-12-05T09:16:48;57.17;;;30.98;;
24685;SDS011;12804;51.176;4.452;2022-12-05T09:19:17;59.90;;;30.27;;
24685;SDS011;12804;51.176;4.452;2022-12-05T09:21:49;56.80;;;30.08;;
24685;SDS011;12804;51.176;4.452;2022-12-05T09:24:14;54.58;;;29.70;;
24685;SDS011;12804;51.176;4.452;2022-12-05T09:26:41;56.50;;;29.60;;
24685;SDS011;12804;51.176;4.452;2022-12-05T09:29:07;56.85;;;29.30;;
24685;SDS011;12804;51.176;4.452;2022-12-05T09:31:34;51.45;;;28.55;;
24685;SDS011;12804;51.176;4.452;2022-12-05T09:34:01;51.70;;;28.73;;
24685;SDS011;12804;51.176;4.452;2022-12-05T09:36:27;49.55;;;28.17;;
24685;SDS011;12804;51.176;4.452;2022-12-05T09:38:58;46.00;;;26.52;;
24685;SDS011;12804;51.176;4.452;2022-12-05T09:49:53;42.33;;;25.08;;
24685;SDS011;12804;51.176;4.452;2022-12-05T09:52:28;46.53;;;26.40;;
24685;SDS011;12804;51.176;4.452;2022-12-05T09:55:10;43.88;;;25.52;;
24685;SDS011;12804;51.176;4.452;2022-12-05T09:57:59;46.20;;;25.10;;
24685;SDS011;12804;51.176;4.452;2022-12-05T10:00:28;41.83;;;23.60;;
24685;SDS011;12804;51.176;4.452;2022-12-05T10:05:46;46.15;;;26.25;;
24685;SDS011;12804;51.176;4.452;2022-12-05T10:08:17;43.20;;;25.05;;
24685;SDS011;12804;51.176;4.452;2022-12-05T10:11:02;43.50;;;24.40;;
24685;SDS011;12804;51.176;4.452;2022-12-05T10:16:44;41.35;;;24.08;;
24685;SDS011;12804;51.176;4.452;2022-12-05T10:19:12;43.60;;;24.30;;
24685;SDS011;12804;51.176;4.452;2022-12-05T10:24:33;47.28;;;24.08;;
24685;SDS011;12804;51.176;4.452;2022-12-05T10:27:06;40.42;;;23.02;;
24685;SDS011;12804;51.176;4.452;2022-12-05T10:29:41;39.83;;;22.90;;
24685;SDS011;12804;51.176;4.452;2022-12-05T10:34:40;40.42;;;23.20;;
24685;SDS011;12804;51.176;4.452;2022-12-05T10:37:13;37.17;;;21.45;;
24685;SDS011;12804;51.176;4.452;2022-12-05T10:39:43;38.35;;;22.55;;
24685;SDS011;12804;51.176;4.452;2022-12-05T10:42:12;36.30;;;21.50;;
24685;SDS011;12804;51.176;4.452;2022-12-05T10:44:53;35.70;;;20.70;;
24685;SDS011;12804;51.176;4.452;2022-12-05T10:47:22;32.90;;;20.90;;
24685;SDS011;12804;51.176;4.452;2022-12-05T10:49:48;38.88;;;22.10;;
24685;SDS011;12804;51.176;4.452;2022-12-05T10:52:14;33.83;;;21.10;;
24685;SDS011;12804;51.176;4.452;2022-12-05T10:54:45;36.95;;;22.75;;
24685;SDS011;12804;51.176;4.452;2022-12-05T10:57:21;34.45;;;20.88;;
24685;SDS011;12804;51.176;4.452;2022-12-05T10:59:48;34.08;;;20.67;;
24685;SDS011;12804;51.176;4.452;2022-12-05T11:04:50;34.22;;;21.83;;
24685;SDS011;12804;51.176;4.452;2022-12-05T11:10:00;34.45;;;20.63;;
24685;SDS011;12804;51.176;4.452;2022-12-05T11:15:02;37.47;;;22.05;;
24685;SDS011;12804;51.176;4.452;2022-12-05T11:17:31;34.03;;;21.23;;
24685;SDS011;12804;51.176;4.452;2022-12-05T11:22:48;36.20;;;21.00;;
24685;SDS011;12804;51.176;4.452;2022-12-05T11:25:23;39.13;;;22.30;;
24685;SDS011;12804;51.176;4.452;2022-12-05T11:27:49;35.03;;;22.15;;
24685;SDS011;12804;51.176;4.452;2022-12-05T11:30:20;34.28;;;21.40;;
24685;SDS011;12804;51.176;4.452;2022-12-05T11:32:46;37.63;;;22.00;;
24685;SDS011;12804;51.176;4.452;2022-12-05T11:35:26;35.78;;;22.48;;
24685;SDS011;12804;51.176;4.452;2022-12-05T11:37:54;40.22;;;23.10;;
24685;SDS011;12804;51.176;4.452;2022-12-05T11:40:29;35.78;;;21.88;;
24685;SDS011;12804;51.176;4.452;2022-12-05T12:02:19;30.50;;;19.80;;
24685;SDS011;12804;51.176;4.452;2022-12-05T12:05:02;31.65;;;19.58;;
24685;SDS011;12804;51.176;4.452;2022-12-05T12:16:12;27.50;;;18.40;;
24685;SDS011;12804;51.176;4.452;2022-12-05T12:19:07;33.45;;;20.67;;
24685;SDS011;12804;51.176;4.452;2022-12-05T12:27:28;32.30;;;21.40;;
24685;SDS011;12804;51.176;4.452;2022-12-05T12:30:21;36.58;;;21.30;;
24685;SDS011;12804;51.176;4.452;2022-12-05T12:35:30;37.80;;;22.20;;
24685;SDS011;12804;51.176;4.452;2022-12-05T12:46:35;34.47;;;20.70;;
24685;SDS011;12804;51.176;4.452;2022-12-05T12:49:40;33.67;;;20.50;;
24685;SDS011;12804;51.176;4.452;2022-12-05T13:03:36;31.75;;;19.05;;
24685;SDS011;12804;51.176;4.452;2022-12-05T13:06:28;28.33;;;18.35;;
24685;SDS011;12804;51.176;4.452;2022-12-05T13:09:27;25.40;;;17.27;;
24685;SDS011;12804;51.176;4.452;2022-12-05T13:12:14;26.80;;;17.75;;
24685;SDS011;12804;51.176;4.452;2022-12-05T13:14:49;29.77;;;17.80;;
24685;SDS011;12804;51.176;4.452;2022-12-05T13:17:19;26.48;;;17.38;;
24685;SDS011;12804;51.176;4.452;2022-12-05T13:19:51;27.27;;;16.90;;
24685;SDS011;12804;51.176;4.452;2022-12-05T13:22:21;26.10;;;16.98;;
24685;SDS011;12804;51.176;4.452;2022-12-05T13:24:49;26.38;;;16.48;;
24685;SDS011;12804;51.176;4.452;2022-12-05T13:27:16;27.60;;;17.70;;
24685;SDS011;12804;51.176;4.452;2022-12-05T13:29:54;29.17;;;18.35;;
24685;SDS011;12804;51.176;4.452;2022-12-05T13:32:28;23.30;;;16.15;;
24685;SDS011;12804;51.176;4.452;2022-12-05T13:34:56;22.70;;;15.75;;
24685;SDS011;12804;51.176;4.452;2022-12-05T13:37:32;24.17;;;15.98;;
24685;SDS011;12804;51.176;4.452;2022-12-05T13:40:24;23.17;;;15.80;;
24685;SDS011;12804;51.176;4.452;2022-12-05T13:43:12;23.75;;;15.32;;
24685;SDS011;12804;51.176;4.452;2022-12-05T13:45:40;21.73;;;14.65;;
24685;SDS011;12804;51.176;4.452;2022-12-05T13:48:20;23.90;;;15.70;;
24685;SDS011;12804;51.176;4.452;2022-12-05T13:50:52;22.73;;;15.35;;
24685;SDS011;12804;51.176;4.452;2022-12-05T13:53:40;23.60;;;15.85;;
24685;SDS011;12804;51.176;4.452;2022-12-05T14:09:26;24.73;;;17.88;;
24685;SDS011;12804;51.176;4.452;2022-12-05T14:18:03;25.27;;;17.10;;
24685;SDS011;12804;51.176;4.452;2022-12-05T14:28:27;25.63;;;16.52;;
24685;SDS011;12804;51.176;4.452;2022-12-05T14:31:17;23.83;;;16.65;;
24685;SDS011;12804;51.176;4.452;2022-12-05T14:36:57;22.73;;;16.58;;
24685;SDS011;12804;51.176;4.452;2022-12-05T14:39:29;23.27;;;17.23;;
24685;SDS011;12804;51.176;4.452;2022-12-05T14:41:59;22.00;;;15.25;;
24685;SDS011;12804;51.176;4.452;2022-12-05T14:44:27;21.88;;;14.32;;
24685;SDS011;12804;51.176;4.452;2022-12-05T14:47:01;30.45;;;19.88;;
24685;SDS011;12804;51.176;4.452;2022-12-05T14:49:51;26.13;;;18.25;;
24685;SDS011;12804;51.176;4.452;2022-12-05T14:52:19;24.52;;;15.60;;
24685;SDS011;12804;51.176;4.452;2022-12-05T14:54:56;18.92;;;13.55;;
24685;SDS011;12804;51.176;4.452;2022-12-05T14:57:30;18.67;;;13.10;;
24685;SDS011;12804;51.176;4.452;2022-12-05T15:00:00;22.80;;;14.65;;
24685;SDS011;12804;51.176;4.452;2022-12-05T15:02:35;22.05;;;13.82;;
24685;SDS011;12804;51.176;4.452;2022-12-05T15:05:19;19.50;;;14.13;;
24685;SDS011;12804;51.176;4.452;2022-12-05T15:07:49;19.90;;;13.88;;
24685;SDS011;12804;51.176;4.452;2022-12-05T15:10:33;19.67;;;14.13;;
24685;SDS011;12804;51.176;4.452;2022-12-05T15:13:03;20.33;;;14.00;;
24685;SDS011;12804;51.176;4.452;2022-12-05T15:20:58;15.98;;;12.45;;
24685;SDS011;12804;51.176;4.452;2022-12-05T15:23:46;15.05;;;12.02;;
24685;SDS011;12804;51.176;4.452;2022-12-05T15:31:56;18.92;;;13.10;;
24685;SDS011;12804;51.176;4.452;2022-12-05T15:37:17;19.70;;;13.98;;
24685;SDS011;12804;51.176;4.452;2022-12-05T15:42:35;23.63;;;17.88;;
24685;SDS011;12804;51.176;4.452;2022-12-05T15:47:40;28.50;;;19.48;;
24685;SDS011;12804;51.176;4.452;2022-12-05T15:50:14;20.00;;;13.57;;
24685;SDS011;12804;51.176;4.452;2022-12-05T15:55:17;17.73;;;14.05;;
24685;SDS011;12804;51.176;4.452;2022-12-05T15:57:59;19.40;;;14.25;;
24685;SDS011;12804;51.176;4.452;2022-12-05T16:00:36;19.60;;;13.90;;
24685;SDS011;12804;51.176;4.452;2022-12-05T16:05:38;17.30;;;13.80;;
24685;SDS011;12804;51.176;4.452;2022-12-05T16:08:12;18.50;;;14.18;;
24685;SDS011;12804;51.176;4.452;2022-12-05T16:10:38;17.17;;;12.45;;
24685;SDS011;12804;51.176;4.452;2022-12-05T16:13:05;16.90;;;11.82;;
24685;SDS011;12804;51.176;4.452;2022-12-05T16:15:41;18.27;;;12.40;;
24685;SDS011;12804;51.176;4.452;2022-12-05T16:18:30;17.23;;;11.65;;
24685;SDS011;12804;51.176;4.452;2022-12-05T16:20:56;14.75;;;11.10;;
24685;SDS011;12804;51.176;4.452;2022-12-05T16:23:26;16.05;;;11.73;;
24685;SDS011;12804;51.176;4.452;2022-12-05T16:28:38;13.90;;;10.55;;
24685;SDS011;12804;51.176;4.452;2022-12-05T16:31:04;17.25;;;12.13;;
24685;SDS011;12804;51.176;4.452;2022-12-05T16:33:30;21.50;;;18.10;;
24685;SDS011;12804;51.176;4.452;2022-12-05T16:36:09;18.73;;;13.80;;
24685;SDS011;12804;51.176;4.452;2022-12-05T16:38:37;14.98;;;11.23;;
24685;SDS011;12804;51.176;4.452;2022-12-05T16:41:05;15.57;;;11.85;;
24685;SDS011;12804;51.176;4.452;2022-12-05T16:51:45;16.48;;;11.10;;
24685;SDS011;12804;51.176;4.452;2022-12-05T16:54:18;17.67;;;11.77;;
24685;SDS011;12804;51.176;4.452;2022-12-05T16:56:44;16.55;;;12.35;;
24685;SDS011;12804;51.176;4.452;2022-12-05T16:59:22;16.90;;;11.82;;
24685;SDS011;12804;51.176;4.452;2022-12-05T17:01:52;17.13;;;12.73;;
24685;SDS011;12804;51.176;4.452;2022-12-05T17:04:18;17.80;;;12.45;;
24685;SDS011;12804;51.176;4.452;2022-12-05T17:06:43;16.52;;;12.18;;
24685;SDS011;12804;51.176;4.452;2022-12-05T17:09:09;16.10;;;12.70;;
24685;SDS011;12804;51.176;4.452;2022-12-05T17:11:35;17.67;;;12.13;;
24685;SDS011;12804;51.176;4.452;2022-12-05T17:14:05;16.13;;;12.13;;
24685;SDS011;12804;51.176;4.452;2022-12-05T17:16:33;16.10;;;11.25;;
24685;SDS011;12804;51.176;4.452;2022-12-05T17:18:59;15.70;;;11.68;;
24685;SDS011;12804;51.176;4.452;2022-12-05T17:21:25;16.40;;;12.25;;
24685;SDS011;12804;51.176;4.452;2022-12-05T17:23:55;13.10;;;10.70;;
24685;SDS011;12804;51.176;4.452;2022-12-05T17:26:21;15.40;;;11.13;;
24685;SDS011;12804;51.176;4.452;2022-12-05T17:28:47;15.45;;;11.13;;
24685;SDS011;12804;51.176;4.452;2022-12-05T17:31:14;13.25;;;11.00;;
24685;SDS011;12804;51.176;4.452;2022-12-05T17:33:41;15.48;;;11.57;;
24685;SDS011;12804;51.176;4.452;2022-12-05T17:36:08;14.18;;;10.77;;
24685;SDS011;12804;51.176;4.452;2022-12-05T17:38:34;15.15;;;11.20;;
24685;SDS011;12804;51.176;4.452;2022-12-05T17:41:00;17.48;;;11.43;;
24685;SDS011;12804;51.176;4.452;2022-12-05T17:43:26;14.15;;;10.50;;
24685;SDS011;12804;51.176;4.452;2022-12-05T17:45:51;14.13;;;11.35;;
24685;SDS011;12804;51.176;4.452;2022-12-05T17:48:18;16.20;;;11.07;;
24685;SDS011;12804;51.176;4.452;2022-12-05T17:50:46;16.13;;;10.52;;
24685;SDS011;12804;51.176;4.452;2022-12-05T17:53:14;15.93;;;11.18;;
24685;SDS011;12804;51.176;4.452;2022-12-05T17:55:41;15.20;;;11.15;;
24685;SDS011;12804;51.176;4.452;2022-12-05T17:58:08;12.07;;;9.73;;